Aviation Digital Data Service (ADDS)

Output produced by METARs form (2236 UTC 30 March 2017)
found at http://www.aviationweather.gov/adds/metars/
 
TAF VLLB 301700Z 3018/3118 24004KT 9999 SCT020 SCT060 
     TEMPO 3018/3100 4000 BR FEW020 SCT050
       
TAF VLPS 301700Z 3018/3118 16006KT 9999 SCT020 SCT050 FEW200
       
TAF VLSK 301700Z 3018/3118 09004KT 7000 SCT020 BKN100 
     TEMPO 3018/3100 2000 BR SCT040 BKN100
       
VLVT 301730Z 36004KT 3000 TS FEW023CB BKN040 25/22 Q1013 CB,N NOSIG
TAF VLVT 301700Z 3018/3118 27006KT 7000 SCT020 SCT050 
     TEMPO 3018/3100 3000 BR FEW020 BKN040
       
TAF VLLB 301700Z 3018/3118 24004KT 9999 SCT020 SCT060 
     TEMPO 3018/3100 4000 BR FEW020 SCT050
       
TAF VLLN 301700Z 3018/3118 34004KT 7000 SCT020 SCT100 
     TEMPO 3018/3100 2000 BR FEW020 SCT093
       
TAF VLPS 301700Z 3018/3118 16006KT 9999 SCT020 SCT050 FEW200
       
TAF VLSK 301700Z 3018/3118 09004KT 7000 SCT020 BKN100 
     TEMPO 3018/3100 2000 BR SCT040 BKN100
       
VLVT 301730Z 36004KT 3000 TS FEW023CB BKN040 25/22 Q1013 CB,N NOSIG
TAF VLVT 301700Z 3018/3118 27006KT 7000 SCT020 SCT050 
     TEMPO 3018/3100 3000 BR FEW020 BKN040